sensor_id;sensor_type;location;lat;lon;timestamp;temperature;humidity
5172;DHT22;2605;49.770;9.868;2022-07-06T00:01:26;17.20;99.90
5172;DHT22;2605;49.770;9.868;2022-07-06T00:03:52;17.10;99.90
5172;DHT22;2605;49.770;9.868;2022-07-06T00:06:17;17.00;99.90
5172;DHT22;2605;49.770;9.868;2022-07-06T00:08:43;17.00;99.90
5172;DHT22;2605;49.770;9.868;2022-07-06T00:11:09;17.00;99.90
5172;DHT22;2605;49.770;9.868;2022-07-06T00:13:35;16.90;99.90
5172;DHT22;2605;49.770;9.868;2022-07-06T00:16:00;16.90;99.90
5172;DHT22;2605;49.770;9.868;2022-07-06T00:18:26;16.90;99.90
5172;DHT22;2605;49.770;9.868;2022-07-06T00:20:51;16.80;99.90
5172;DHT22;2605;49.770;9.868;2022-07-06T00:23:17;16.70;99.90
5172;DHT22;2605;49.770;9.868;2022-07-06T00:25:47;16.70;99.90
5172;DHT22;2605;49.770;9.868;2022-07-06T00:28:13;16.60;99.90
5172;DHT22;2605;49.770;9.868;2022-07-06T00:30:39;16.60;99.90
5172;DHT22;2605;49.770;9.868;2022-07-06T00:33:04;16.50;99.90
5172;DHT22;2605;49.770;9.868;2022-07-06T00:35:30;16.50;99.90
5172;DHT22;2605;49.770;9.868;2022-07-06T00:37:56;16.40;99.90
5172;DHT22;2605;49.770;9.868;2022-07-06T00:40:24;16.40;99.90
5172;DHT22;2605;49.770;9.868;2022-07-06T00:42:50;16.40;99.90
5172;DHT22;2605;49.770;9.868;2022-07-06T00:45:17;16.40;99.90
5172;DHT22;2605;49.770;9.868;2022-07-06T00:47:43;16.40;99.90
5172;DHT22;2605;49.770;9.868;2022-07-06T00:50:12;16.40;99.90
5172;DHT22;2605;49.770;9.868;2022-07-06T00:52:44;16.40;99.90
5172;DHT22;2605;49.770;9.868;2022-07-06T00:55:10;16.40;99.90
5172;DHT22;2605;49.770;9.868;2022-07-06T00:57:37;16.40;99.90
5172;DHT22;2605;49.770;9.868;2022-07-06T01:00:08;16.30;99.90
5172;DHT22;2605;49.770;9.868;2022-07-06T01:02:35;16.40;99.90
5172;DHT22;2605;49.770;9.868;2022-07-06T01:05:04;16.30;99.90
5172;DHT22;2605;49.770;9.868;2022-07-06T01:07:30;16.30;99.90
5172;DHT22;2605;49.770;9.868;2022-07-06T01:09:56;16.30;99.90
5172;DHT22;2605;49.770;9.868;2022-07-06T01:12:21;16.30;99.90
5172;DHT22;2605;49.770;9.868;2022-07-06T01:14:48;16.30;99.90
5172;DHT22;2605;49.770;9.868;2022-07-06T01:17:14;16.30;99.90
5172;DHT22;2605;49.770;9.868;2022-07-06T01:19:40;16.10;99.90
5172;DHT22;2605;49.770;9.868;2022-07-06T01:22:06;16.10;99.90
5172;DHT22;2605;49.770;9.868;2022-07-06T01:24:34;16.00;99.90
5172;DHT22;2605;49.770;9.868;2022-07-06T01:27:00;16.00;99.90
5172;DHT22;2605;49.770;9.868;2022-07-06T01:29:26;15.90;99.90
5172;DHT22;2605;49.770;9.868;2022-07-06T01:31:51;16.00;99.90
5172;DHT22;2605;49.770;9.868;2022-07-06T01:34:18;15.90;99.90
5172;DHT22;2605;49.770;9.868;2022-07-06T01:36:44;15.90;99.90
5172;DHT22;2605;49.770;9.868;2022-07-06T01:39:10;15.80;99.90
5172;DHT22;2605;49.770;9.868;2022-07-06T01:41:36;15.90;99.90
5172;DHT22;2605;49.770;9.868;2022-07-06T01:44:02;15.90;99.90
5172;DHT22;2605;49.770;9.868;2022-07-06T01:46:28;15.90;99.90
5172;DHT22;2605;49.770;9.868;2022-07-06T01:48:54;15.90;99.90
5172;DHT22;2605;49.770;9.868;2022-07-06T01:51:25;15.80;99.90
5172;DHT22;2605;49.770;9.868;2022-07-06T01:53:51;15.80;99.90
5172;DHT22;2605;49.770;9.868;2022-07-06T01:56:17;15.90;99.90
5172;DHT22;2605;49.770;9.868;2022-07-06T01:58:45;15.80;99.90
5172;DHT22;2605;49.770;9.868;2022-07-06T02:01:13;15.80;99.90
5172;DHT22;2605;49.770;9.868;2022-07-06T02:03:39;15.80;99.90
5172;DHT22;2605;49.770;9.868;2022-07-06T02:06:05;15.70;99.90
5172;DHT22;2605;49.770;9.868;2022-07-06T02:08:31;15.80;99.90
5172;DHT22;2605;49.770;9.868;2022-07-06T02:10:57;15.70;99.90
5172;DHT22;2605;49.770;9.868;2022-07-06T02:13:23;15.70;99.90
5172;DHT22;2605;49.770;9.868;2022-07-06T02:15:49;15.70;99.90
5172;DHT22;2605;49.770;9.868;2022-07-06T02:18:14;15.60;99.90
5172;DHT22;2605;49.770;9.868;2022-07-06T02:20:40;15.60;99.90
5172;DHT22;2605;49.770;9.868;2022-07-06T02:23:05;15.60;99.90
5172;DHT22;2605;49.770;9.868;2022-07-06T02:25:31;15.60;99.90
5172;DHT22;2605;49.770;9.868;2022-07-06T02:27:56;15.60;99.90
5172;DHT22;2605;49.770;9.868;2022-07-06T02:30:22;15.50;99.90
5172;DHT22;2605;49.770;9.868;2022-07-06T02:32:47;15.50;99.90
5172;DHT22;2605;49.770;9.868;2022-07-06T02:35:13;15.40;99.90
5172;DHT22;2605;49.770;9.868;2022-07-06T02:37:39;15.30;99.90
5172;DHT22;2605;49.770;9.868;2022-07-06T02:40:05;15.30;99.90
5172;DHT22;2605;49.770;9.868;2022-07-06T02:42:31;15.20;99.90
5172;DHT22;2605;49.770;9.868;2022-07-06T02:44:56;15.20;99.90
5172;DHT22;2605;49.770;9.868;2022-07-06T02:47:22;15.10;99.90
5172;DHT22;2605;49.770;9.868;2022-07-06T02:49:48;15.10;99.90
5172;DHT22;2605;49.770;9.868;2022-07-06T02:52:13;15.00;99.90
5172;DHT22;2605;49.770;9.868;2022-07-06T02:54:39;15.00;99.90
5172;DHT22;2605;49.770;9.868;2022-07-06T02:57:04;14.90;99.90
5172;DHT22;2605;49.770;9.868;2022-07-06T02:59:30;14.90;99.90
5172;DHT22;2605;49.770;9.868;2022-07-06T03:01:55;14.80;99.90
5172;DHT22;2605;49.770;9.868;2022-07-06T03:04:21;14.80;99.90
5172;DHT22;2605;49.770;9.868;2022-07-06T03:06:46;14.80;99.90
5172;DHT22;2605;49.770;9.868;2022-07-06T03:09:12;14.80;99.90
5172;DHT22;2605;49.770;9.868;2022-07-06T03:11:37;14.80;99.90
5172;DHT22;2605;49.770;9.868;2022-07-06T03:14:04;14.80;99.90
5172;DHT22;2605;49.770;9.868;2022-07-06T03:16:30;14.70;99.90
5172;DHT22;2605;49.770;9.868;2022-07-06T03:18:58;14.70;99.90
5172;DHT22;2605;49.770;9.868;2022-07-06T03:21:24;14.80;99.90
5172;DHT22;2605;49.770;9.868;2022-07-06T03:23:50;14.70;99.90
5172;DHT22;2605;49.770;9.868;2022-07-06T03:26:16;14.70;99.90
5172;DHT22;2605;49.770;9.868;2022-07-06T03:28:41;14.60;99.90
5172;DHT22;2605;49.770;9.868;2022-07-06T03:31:07;14.60;99.90
5172;DHT22;2605;49.770;9.868;2022-07-06T03:33:32;14.50;99.90
5172;DHT22;2605;49.770;9.868;2022-07-06T03:35:58;14.40;99.90
5172;DHT22;2605;49.770;9.868;2022-07-06T03:38:23;14.40;99.90
5172;DHT22;2605;49.770;9.868;2022-07-06T03:40:49;14.30;99.90
5172;DHT22;2605;49.770;9.868;2022-07-06T03:43:14;14.30;99.90
5172;DHT22;2605;49.770;9.868;2022-07-06T03:45:40;14.30;99.90
5172;DHT22;2605;49.770;9.868;2022-07-06T03:48:08;14.30;99.90
5172;DHT22;2605;49.770;9.868;2022-07-06T03:50:33;14.30;99.90
5172;DHT22;2605;49.770;9.868;2022-07-06T03:52:59;14.30;99.90
5172;DHT22;2605;49.770;9.868;2022-07-06T03:55:24;14.20;99.90
5172;DHT22;2605;49.770;9.868;2022-07-06T03:57:50;14.20;99.90
5172;DHT22;2605;49.770;9.868;2022-07-06T04:00:15;14.30;99.90
5172;DHT22;2605;49.770;9.868;2022-07-06T04:02:44;14.30;99.90
5172;DHT22;2605;49.770;9.868;2022-07-06T04:05:10;14.30;99.90
5172;DHT22;2605;49.770;9.868;2022-07-06T04:07:35;14.30;99.90
5172;DHT22;2605;49.770;9.868;2022-07-06T04:10:01;14.30;99.90
5172;DHT22;2605;49.770;9.868;2022-07-06T04:12:26;14.30;99.90
5172;DHT22;2605;49.770;9.868;2022-07-06T04:14:52;14.30;99.90
5172;DHT22;2605;49.770;9.868;2022-07-06T04:17:18;14.30;99.90
5172;DHT22;2605;49.770;9.868;2022-07-06T04:20:02;14.40;99.90
5172;DHT22;2605;49.770;9.868;2022-07-06T04:22:28;14.40;99.90
5172;DHT22;2605;49.770;9.868;2022-07-06T04:24:57;14.50;99.90
5172;DHT22;2605;49.770;9.868;2022-07-06T04:27:22;14.50;99.90
5172;DHT22;2605;49.770;9.868;2022-07-06T04:29:47;14.50;99.90
5172;DHT22;2605;49.770;9.868;2022-07-06T04:32:16;14.60;99.90
5172;DHT22;2605;49.770;9.868;2022-07-06T04:34:41;14.70;99.90
5172;DHT22;2605;49.770;9.868;2022-07-06T04:37:07;15.20;99.90
5172;DHT22;2605;49.770;9.868;2022-07-06T04:39:32;15.60;99.90
5172;DHT22;2605;49.770;9.868;2022-07-06T04:41:58;15.50;99.90
5172;DHT22;2605;49.770;9.868;2022-07-06T04:44:23;15.30;99.90
5172;DHT22;2605;49.770;9.868;2022-07-06T04:46:49;15.10;99.90
5172;DHT22;2605;49.770;9.868;2022-07-06T04:49:17;15.10;99.90
5172;DHT22;2605;49.770;9.868;2022-07-06T04:51:43;15.10;99.90
5172;DHT22;2605;49.770;9.868;2022-07-06T04:54:11;15.10;99.90
5172;DHT22;2605;49.770;9.868;2022-07-06T04:56:37;15.10;99.90
5172;DHT22;2605;49.770;9.868;2022-07-06T04:59:02;15.10;99.90
5172;DHT22;2605;49.770;9.868;2022-07-06T05:01:28;15.10;99.90
5172;DHT22;2605;49.770;9.868;2022-07-06T05:03:53;15.00;99.90
5172;DHT22;2605;49.770;9.868;2022-07-06T05:06:19;14.90;99.90
5172;DHT22;2605;49.770;9.868;2022-07-06T05:08:45;15.00;99.90
5172;DHT22;2605;49.770;9.868;2022-07-06T05:11:11;15.00;99.90
5172;DHT22;2605;49.770;9.868;2022-07-06T05:13:36;15.00;99.90
5172;DHT22;2605;49.770;9.868;2022-07-06T05:16:02;15.10;99.90
5172;DHT22;2605;49.770;9.868;2022-07-06T05:18:27;15.20;99.90
5172;DHT22;2605;49.770;9.868;2022-07-06T05:20:53;15.20;99.90
5172;DHT22;2605;49.770;9.868;2022-07-06T05:23:18;15.30;99.90
5172;DHT22;2605;49.770;9.868;2022-07-06T05:25:44;15.20;99.90
5172;DHT22;2605;49.770;9.868;2022-07-06T05:28:09;15.30;99.90
5172;DHT22;2605;49.770;9.868;2022-07-06T05:30:35;15.30;99.90
5172;DHT22;2605;49.770;9.868;2022-07-06T05:33:00;15.40;99.90
5172;DHT22;2605;49.770;9.868;2022-07-06T05:35:26;15.40;99.90
5172;DHT22;2605;49.770;9.868;2022-07-06T05:37:51;15.60;99.90
5172;DHT22;2605;49.770;9.868;2022-07-06T05:40:17;15.70;99.90
5172;DHT22;2605;49.770;9.868;2022-07-06T05:42:42;15.90;99.90
5172;DHT22;2605;49.770;9.868;2022-07-06T05:45:08;16.10;99.90
5172;DHT22;2605;49.770;9.868;2022-07-06T05:47:34;16.20;99.90
5172;DHT22;2605;49.770;9.868;2022-07-06T05:50:18;16.30;99.90
5172;DHT22;2605;49.770;9.868;2022-07-06T05:52:54;16.40;99.90
5172;DHT22;2605;49.770;9.868;2022-07-06T05:55:20;16.40;99.90
5172;DHT22;2605;49.770;9.868;2022-07-06T05:57:45;16.60;99.90
5172;DHT22;2605;49.770;9.868;2022-07-06T06:00:11;16.70;99.90
5172;DHT22;2605;49.770;9.868;2022-07-06T06:02:41;16.80;99.90
5172;DHT22;2605;49.770;9.868;2022-07-06T06:05:09;16.60;99.90
5172;DHT22;2605;49.770;9.868;2022-07-06T06:07:38;16.70;99.90
5172;DHT22;2605;49.770;9.868;2022-07-06T06:10:08;16.70;99.90
5172;DHT22;2605;49.770;9.868;2022-07-06T06:12:34;16.70;99.90
5172;DHT22;2605;49.770;9.868;2022-07-06T06:15:00;17.00;99.90
5172;DHT22;2605;49.770;9.868;2022-07-06T06:17:28;17.00;99.90
5172;DHT22;2605;49.770;9.868;2022-07-06T06:19:54;17.20;99.90
5172;DHT22;2605;49.770;9.868;2022-07-06T06:22:19;17.00;99.90
5172;DHT22;2605;49.770;9.868;2022-07-06T06:24:45;16.90;99.90
5172;DHT22;2605;49.770;9.868;2022-07-06T06:27:11;16.90;99.90
5172;DHT22;2605;49.770;9.868;2022-07-06T06:29:37;16.90;99.90
5172;DHT22;2605;49.770;9.868;2022-07-06T06:32:03;16.90;99.90
5172;DHT22;2605;49.770;9.868;2022-07-06T06:34:30;17.00;99.90
5172;DHT22;2605;49.770;9.868;2022-07-06T06:36:56;17.20;99.90
5172;DHT22;2605;49.770;9.868;2022-07-06T06:39:21;17.40;99.90
5172;DHT22;2605;49.770;9.868;2022-07-06T06:41:47;17.30;99.90
5172;DHT22;2605;49.770;9.868;2022-07-06T06:44:13;17.20;99.90
5172;DHT22;2605;49.770;9.868;2022-07-06T06:46:39;17.10;99.90
5172;DHT22;2605;49.770;9.868;2022-07-06T06:49:05;17.10;99.90
5172;DHT22;2605;49.770;9.868;2022-07-06T06:51:31;17.00;99.90
5172;DHT22;2605;49.770;9.868;2022-07-06T06:53:56;16.80;99.90
5172;DHT22;2605;49.770;9.868;2022-07-06T06:56:22;16.90;99.90
5172;DHT22;2605;49.770;9.868;2022-07-06T06:58:48;16.90;99.90
5172;DHT22;2605;49.770;9.868;2022-07-06T07:01:13;16.90;99.90
5172;DHT22;2605;49.770;9.868;2022-07-06T07:03:38;17.00;99.90
5172;DHT22;2605;49.770;9.868;2022-07-06T07:06:04;17.30;99.90
5172;DHT22;2605;49.770;9.868;2022-07-06T07:08:30;17.40;99.90
5172;DHT22;2605;49.770;9.868;2022-07-06T07:10:55;17.30;99.90
5172;DHT22;2605;49.770;9.868;2022-07-06T07:13:21;17.40;99.90
5172;DHT22;2605;49.770;9.868;2022-07-06T07:15:46;17.50;99.90
5172;DHT22;2605;49.770;9.868;2022-07-06T07:18:12;17.40;99.90
5172;DHT22;2605;49.770;9.868;2022-07-06T07:20:37;17.50;99.90
5172;DHT22;2605;49.770;9.868;2022-07-06T07:23:03;17.50;99.90
5172;DHT22;2605;49.770;9.868;2022-07-06T07:25:29;17.50;99.90
5172;DHT22;2605;49.770;9.868;2022-07-06T07:27:54;17.50;99.90
5172;DHT22;2605;49.770;9.868;2022-07-06T07:30:20;17.50;99.90
5172;DHT22;2605;49.770;9.868;2022-07-06T07:32:46;17.60;99.90
5172;DHT22;2605;49.770;9.868;2022-07-06T07:35:12;17.70;99.90
5172;DHT22;2605;49.770;9.868;2022-07-06T07:37:38;17.80;99.90
5172;DHT22;2605;49.770;9.868;2022-07-06T07:40:04;17.90;99.90
5172;DHT22;2605;49.770;9.868;2022-07-06T07:42:31;18.00;99.90
5172;DHT22;2605;49.770;9.868;2022-07-06T07:44:56;18.00;99.90
5172;DHT22;2605;49.770;9.868;2022-07-06T07:47:22;18.00;99.90
5172;DHT22;2605;49.770;9.868;2022-07-06T07:49:47;18.20;99.90
5172;DHT22;2605;49.770;9.868;2022-07-06T07:52:13;18.40;99.90
5172;DHT22;2605;49.770;9.868;2022-07-06T07:54:38;18.40;99.90
5172;DHT22;2605;49.770;9.868;2022-07-06T07:57:04;18.50;99.90
5172;DHT22;2605;49.770;9.868;2022-07-06T07:59:30;18.50;99.90
5172;DHT22;2605;49.770;9.868;2022-07-06T08:01:56;18.70;99.90
5172;DHT22;2605;49.770;9.868;2022-07-06T08:04:21;18.80;99.90
5172;DHT22;2605;49.770;9.868;2022-07-06T08:06:47;18.90;99.90
5172;DHT22;2605;49.770;9.868;2022-07-06T08:09:13;19.00;99.90
5172;DHT22;2605;49.770;9.868;2022-07-06T08:11:39;18.90;99.90
5172;DHT22;2605;49.770;9.868;2022-07-06T08:14:07;19.10;99.90
5172;DHT22;2605;49.770;9.868;2022-07-06T08:16:36;19.30;99.90
5172;DHT22;2605;49.770;9.868;2022-07-06T08:19:04;19.30;99.90
5172;DHT22;2605;49.770;9.868;2022-07-06T08:21:30;19.10;99.90
5172;DHT22;2605;49.770;9.868;2022-07-06T08:23:55;19.30;99.90
5172;DHT22;2605;49.770;9.868;2022-07-06T08:26:21;19.40;99.90
5172;DHT22;2605;49.770;9.868;2022-07-06T08:28:47;19.50;99.90
5172;DHT22;2605;49.770;9.868;2022-07-06T08:31:13;20.00;99.90
5172;DHT22;2605;49.770;9.868;2022-07-06T08:33:38;20.10;99.90
5172;DHT22;2605;49.770;9.868;2022-07-06T08:36:04;20.30;99.90
5172;DHT22;2605;49.770;9.868;2022-07-06T08:38:30;20.10;99.90
5172;DHT22;2605;49.770;9.868;2022-07-06T08:40:56;19.70;99.90
5172;DHT22;2605;49.770;9.868;2022-07-06T08:43:22;19.80;99.90
5172;DHT22;2605;49.770;9.868;2022-07-06T08:45:49;19.50;99.90
5172;DHT22;2605;49.770;9.868;2022-07-06T08:48:22;19.70;99.90
5172;DHT22;2605;49.770;9.868;2022-07-06T08:50:48;19.70;99.90
5172;DHT22;2605;49.770;9.868;2022-07-06T08:53:17;19.70;99.90
5172;DHT22;2605;49.770;9.868;2022-07-06T08:55:42;19.80;99.90
5172;DHT22;2605;49.770;9.868;2022-07-06T08:58:09;20.10;99.90
5172;DHT22;2605;49.770;9.868;2022-07-06T09:00:34;20.30;99.90
5172;DHT22;2605;49.770;9.868;2022-07-06T09:03:01;20.30;99.90
5172;DHT22;2605;49.770;9.868;2022-07-06T09:05:31;20.20;99.90
5172;DHT22;2605;49.770;9.868;2022-07-06T09:07:58;20.40;99.90
5172;DHT22;2605;49.770;9.868;2022-07-06T09:10:23;20.60;99.90
5172;DHT22;2605;49.770;9.868;2022-07-06T09:12:49;20.70;99.90
5172;DHT22;2605;49.770;9.868;2022-07-06T09:15:15;20.20;99.90
5172;DHT22;2605;49.770;9.868;2022-07-06T09:17:42;20.60;99.90
5172;DHT22;2605;49.770;9.868;2022-07-06T09:20:12;20.70;99.90
5172;DHT22;2605;49.770;9.868;2022-07-06T09:22:39;20.80;99.90
5172;DHT22;2605;49.770;9.868;2022-07-06T09:25:10;20.80;99.90
5172;DHT22;2605;49.770;9.868;2022-07-06T09:27:43;21.00;99.90
5172;DHT22;2605;49.770;9.868;2022-07-06T09:30:12;20.90;99.90
5172;DHT22;2605;49.770;9.868;2022-07-06T09:32:43;21.70;99.90
5172;DHT22;2605;49.770;9.868;2022-07-06T09:35:28;21.90;99.90
5172;DHT22;2605;49.770;9.868;2022-07-06T09:38:02;22.10;99.90
5172;DHT22;2605;49.770;9.868;2022-07-06T09:40:30;22.00;99.90
5172;DHT22;2605;49.770;9.868;2022-07-06T09:45:38;20.80;99.90
5172;DHT22;2605;49.770;9.868;2022-07-06T09:48:15;20.70;99.90
5172;DHT22;2605;49.770;9.868;2022-07-06T09:51:10;20.80;99.90
5172;DHT22;2605;49.770;9.868;2022-07-06T09:53:35;21.40;99.90
5172;DHT22;2605;49.770;9.868;2022-07-06T09:56:01;21.80;99.90
5172;DHT22;2605;49.770;9.868;2022-07-06T09:58:30;21.90;99.90
5172;DHT22;2605;49.770;9.868;2022-07-06T10:00:55;21.50;99.90
5172;DHT22;2605;49.770;9.868;2022-07-06T10:03:21;21.50;99.90
5172;DHT22;2605;49.770;9.868;2022-07-06T10:05:48;21.90;99.90
5172;DHT22;2605;49.770;9.868;2022-07-06T10:08:16;21.70;99.90
5172;DHT22;2605;49.770;9.868;2022-07-06T10:10:45;21.60;99.90
5172;DHT22;2605;49.770;9.868;2022-07-06T10:13:11;21.00;99.90
5172;DHT22;2605;49.770;9.868;2022-07-06T10:15:38;20.80;99.90
5172;DHT22;2605;49.770;9.868;2022-07-06T10:18:06;21.20;99.90
5172;DHT22;2605;49.770;9.868;2022-07-06T10:20:33;21.80;99.90
5172;DHT22;2605;49.770;9.868;2022-07-06T10:23:02;21.80;99.90
5172;DHT22;2605;49.770;9.868;2022-07-06T10:25:29;21.50;99.90
5172;DHT22;2605;49.770;9.868;2022-07-06T10:27:55;21.50;99.90
5172;DHT22;2605;49.770;9.868;2022-07-06T10:30:21;21.20;99.90
5172;DHT22;2605;49.770;9.868;2022-07-06T10:32:49;21.10;99.90
5172;DHT22;2605;49.770;9.868;2022-07-06T10:35:16;21.30;99.90
5172;DHT22;2605;49.770;9.868;2022-07-06T10:37:44;21.50;99.90
5172;DHT22;2605;49.770;9.868;2022-07-06T10:40:10;21.50;99.90
5172;DHT22;2605;49.770;9.868;2022-07-06T10:43:01;21.80;99.90
5172;DHT22;2605;49.770;9.868;2022-07-06T10:48:19;21.30;99.90
5172;DHT22;2605;49.770;9.868;2022-07-06T10:50:51;21.50;99.90
5172;DHT22;2605;49.770;9.868;2022-07-06T10:53:24;21.00;99.90
5172;DHT22;2605;49.770;9.868;2022-07-06T10:55:55;20.90;99.90
5172;DHT22;2605;49.770;9.868;2022-07-06T10:58:36;20.80;99.90
5172;DHT22;2605;49.770;9.868;2022-07-06T11:01:03;20.70;99.90
5172;DHT22;2605;49.770;9.868;2022-07-06T11:03:40;20.80;99.90
5172;DHT22;2605;49.770;9.868;2022-07-06T11:06:13;20.30;99.90
5172;DHT22;2605;49.770;9.868;2022-07-06T11:09:02;20.40;99.90
5172;DHT22;2605;49.770;9.868;2022-07-06T11:14:04;20.90;99.90
5172;DHT22;2605;49.770;9.868;2022-07-06T11:17:16;21.00;99.90
5172;DHT22;2605;49.770;9.868;2022-07-06T11:19:18;21.20;99.90
5172;DHT22;2605;49.770;9.868;2022-07-06T11:24:12;22.10;99.90
5172;DHT22;2605;49.770;9.868;2022-07-06T11:26:38;22.00;99.90
5172;DHT22;2605;49.770;9.868;2022-07-06T11:29:05;21.60;99.90
5172;DHT22;2605;49.770;9.868;2022-07-06T11:31:36;21.50;99.90
5172;DHT22;2605;49.770;9.868;2022-07-06T11:34:03;21.40;99.90
5172;DHT22;2605;49.770;9.868;2022-07-06T11:36:29;21.60;99.90
5172;DHT22;2605;49.770;9.868;2022-07-06T11:38:55;21.80;99.90
5172;DHT22;2605;49.770;9.868;2022-07-06T11:41:21;21.70;99.90
5172;DHT22;2605;49.770;9.868;2022-07-06T11:43:47;22.10;99.90
5172;DHT22;2605;49.770;9.868;2022-07-06T11:46:29;22.20;99.90
5172;DHT22;2605;49.770;9.868;2022-07-06T11:48:57;21.20;99.90
5172;DHT22;2605;49.770;9.868;2022-07-06T11:51:26;21.20;99.90
5172;DHT22;2605;49.770;9.868;2022-07-06T11:53:57;21.20;99.90
5172;DHT22;2605;49.770;9.868;2022-07-06T11:56:26;21.40;99.90
5172;DHT22;2605;49.770;9.868;2022-07-06T11:59:00;21.60;99.90
5172;DHT22;2605;49.770;9.868;2022-07-06T12:01:27;21.70;99.90
5172;DHT22;2605;49.770;9.868;2022-07-06T12:04:01;21.40;99.90
5172;DHT22;2605;49.770;9.868;2022-07-06T12:06:30;21.20;99.90
5172;DHT22;2605;49.770;9.868;2022-07-06T12:09:00;21.30;99.90
5172;DHT22;2605;49.770;9.868;2022-07-06T12:11:34;21.50;99.90
5172;DHT22;2605;49.770;9.868;2022-07-06T12:14:02;22.00;99.90
5172;DHT22;2605;49.770;9.868;2022-07-06T12:16:32;22.20;99.90
5172;DHT22;2605;49.770;9.868;2022-07-06T12:19:00;22.30;99.90
5172;DHT22;2605;49.770;9.868;2022-07-06T12:21:26;22.20;98.40
5172;DHT22;2605;49.770;9.868;2022-07-06T12:23:53;21.80;98.10
5172;DHT22;2605;49.770;9.868;2022-07-06T12:26:21;21.70;99.00
5172;DHT22;2605;49.770;9.868;2022-07-06T12:29:04;21.60;99.40
5172;DHT22;2605;49.770;9.868;2022-07-06T12:31:37;21.70;98.80
5172;DHT22;2605;49.770;9.868;2022-07-06T12:34:04;21.40;98.30
5172;DHT22;2605;49.770;9.868;2022-07-06T12:36:31;21.60;97.60
5172;DHT22;2605;49.770;9.868;2022-07-06T12:38:57;21.60;94.20
5172;DHT22;2605;49.770;9.868;2022-07-06T12:41:34;21.50;91.70
5172;DHT22;2605;49.770;9.868;2022-07-06T12:44:05;21.90;94.10
5172;DHT22;2605;49.770;9.868;2022-07-06T12:46:37;22.00;97.50
5172;DHT22;2605;49.770;9.868;2022-07-06T12:49:11;22.10;99.00
5172;DHT22;2605;49.770;9.868;2022-07-06T12:54:23;22.00;97.70
5172;DHT22;2605;49.770;9.868;2022-07-06T12:57:05;21.80;96.80
5172;DHT22;2605;49.770;9.868;2022-07-06T12:59:33;21.50;99.20
5172;DHT22;2605;49.770;9.868;2022-07-06T13:01:58;21.50;99.50
5172;DHT22;2605;49.770;9.868;2022-07-06T13:04:29;21.40;98.60
5172;DHT22;2605;49.770;9.868;2022-07-06T13:06:55;21.50;98.50
5172;DHT22;2605;49.770;9.868;2022-07-06T13:09:21;21.30;96.90
5172;DHT22;2605;49.770;9.868;2022-07-06T13:11:48;21.50;97.00
5172;DHT22;2605;49.770;9.868;2022-07-06T13:14:18;21.60;94.70
5172;DHT22;2605;49.770;9.868;2022-07-06T13:16:45;21.70;92.30
5172;DHT22;2605;49.770;9.868;2022-07-06T13:19:11;21.40;93.90
5172;DHT22;2605;49.770;9.868;2022-07-06T13:21:36;21.40;96.40
5172;DHT22;2605;49.770;9.868;2022-07-06T13:24:03;21.40;96.80
5172;DHT22;2605;49.770;9.868;2022-07-06T13:26:29;21.50;97.50
5172;DHT22;2605;49.770;9.868;2022-07-06T13:29:02;21.60;96.00
5172;DHT22;2605;49.770;9.868;2022-07-06T13:31:27;21.60;96.80
5172;DHT22;2605;49.770;9.868;2022-07-06T13:33:54;21.90;95.60
5172;DHT22;2605;49.770;9.868;2022-07-06T13:36:19;21.70;95.80
5172;DHT22;2605;49.770;9.868;2022-07-06T13:38:45;21.70;94.90
5172;DHT22;2605;49.770;9.868;2022-07-06T13:41:10;21.80;94.60
5172;DHT22;2605;49.770;9.868;2022-07-06T13:43:39;22.10;94.90
5172;DHT22;2605;49.770;9.868;2022-07-06T13:46:06;22.20;93.10
5172;DHT22;2605;49.770;9.868;2022-07-06T13:48:32;22.30;94.30
5172;DHT22;2605;49.770;9.868;2022-07-06T13:50:58;22.70;93.90
5172;DHT22;2605;49.770;9.868;2022-07-06T13:53:24;23.00;93.90
5172;DHT22;2605;49.770;9.868;2022-07-06T13:55:50;23.20;93.10
5172;DHT22;2605;49.770;9.868;2022-07-06T13:58:16;25.70;89.20
5172;DHT22;2605;49.770;9.868;2022-07-06T14:00:41;26.20;83.20
5172;DHT22;2605;49.770;9.868;2022-07-06T14:03:07;27.10;78.40
5172;DHT22;2605;49.770;9.868;2022-07-06T14:05:34;28.30;73.90
5172;DHT22;2605;49.770;9.868;2022-07-06T14:07:59;27.10;72.90
5172;DHT22;2605;49.770;9.868;2022-07-06T14:10:28;26.80;73.90
5172;DHT22;2605;49.770;9.868;2022-07-06T14:12:53;25.70;78.30
5172;DHT22;2605;49.770;9.868;2022-07-06T14:15:22;24.90;80.50
5172;DHT22;2605;49.770;9.868;2022-07-06T14:17:48;26.20;72.10
5172;DHT22;2605;49.770;9.868;2022-07-06T14:20:14;28.20;69.30
5172;DHT22;2605;49.770;9.868;2022-07-06T14:22:41;28.70;63.60
5172;DHT22;2605;49.770;9.868;2022-07-06T14:25:07;28.70;60.70
5172;DHT22;2605;49.770;9.868;2022-07-06T14:27:33;27.20;66.30
5172;DHT22;2605;49.770;9.868;2022-07-06T14:29:59;26.80;67.30
5172;DHT22;2605;49.770;9.868;2022-07-06T14:32:25;26.80;66.90
5172;DHT22;2605;49.770;9.868;2022-07-06T14:34:51;26.70;68.00
5172;DHT22;2605;49.770;9.868;2022-07-06T14:37:16;27.60;61.50
5172;DHT22;2605;49.770;9.868;2022-07-06T14:39:42;28.90;59.10
5172;DHT22;2605;49.770;9.868;2022-07-06T14:42:08;26.90;60.10
5172;DHT22;2605;49.770;9.868;2022-07-06T14:44:34;25.00;66.50
5172;DHT22;2605;49.770;9.868;2022-07-06T14:47:00;27.20;65.10
5172;DHT22;2605;49.770;9.868;2022-07-06T14:49:25;26.20;63.20
5172;DHT22;2605;49.770;9.868;2022-07-06T14:51:51;26.90;65.60
5172;DHT22;2605;49.770;9.868;2022-07-06T14:54:16;27.30;60.30
5172;DHT22;2605;49.770;9.868;2022-07-06T14:56:42;26.50;59.40
5172;DHT22;2605;49.770;9.868;2022-07-06T14:59:08;27.10;58.50
5172;DHT22;2605;49.770;9.868;2022-07-06T15:01:33;28.00;58.60
5172;DHT22;2605;49.770;9.868;2022-07-06T15:03:59;28.40;58.50
5172;DHT22;2605;49.770;9.868;2022-07-06T15:06:25;28.20;57.00
5172;DHT22;2605;49.770;9.868;2022-07-06T15:08:50;26.60;61.40
5172;DHT22;2605;49.770;9.868;2022-07-06T15:11:16;25.70;65.10
5172;DHT22;2605;49.770;9.868;2022-07-06T15:13:41;25.40;66.50
5172;DHT22;2605;49.770;9.868;2022-07-06T15:16:07;25.80;67.70
5172;DHT22;2605;49.770;9.868;2022-07-06T15:18:33;27.70;62.30
5172;DHT22;2605;49.770;9.868;2022-07-06T15:20:59;28.70;56.70
5172;DHT22;2605;49.770;9.868;2022-07-06T15:23:24;29.50;54.90
5172;DHT22;2605;49.770;9.868;2022-07-06T15:25:52;28.80;53.10
5172;DHT22;2605;49.770;9.868;2022-07-06T15:28:23;28.00;54.80
5172;DHT22;2605;49.770;9.868;2022-07-06T15:30:52;28.50;53.30
5172;DHT22;2605;49.770;9.868;2022-07-06T15:33:18;27.90;56.40
5172;DHT22;2605;49.770;9.868;2022-07-06T15:35:43;25.80;59.50
5172;DHT22;2605;49.770;9.868;2022-07-06T15:38:09;26.80;63.50
5172;DHT22;2605;49.770;9.868;2022-07-06T15:40:34;27.70;57.30
5172;DHT22;2605;49.770;9.868;2022-07-06T15:43:05;28.70;54.70
5172;DHT22;2605;49.770;9.868;2022-07-06T15:45:31;29.70;51.70
5172;DHT22;2605;49.770;9.868;2022-07-06T15:47:57;31.20;49.50
5172;DHT22;2605;49.770;9.868;2022-07-06T15:50:22;29.60;48.40
5172;DHT22;2605;49.770;9.868;2022-07-06T15:52:48;29.30;48.70
5172;DHT22;2605;49.770;9.868;2022-07-06T15:55:14;27.90;50.30
5172;DHT22;2605;49.770;9.868;2022-07-06T15:57:39;26.00;56.20
5172;DHT22;2605;49.770;9.868;2022-07-06T16:00:05;27.40;56.20
5172;DHT22;2605;49.770;9.868;2022-07-06T16:02:34;28.30;53.30
5172;DHT22;2605;49.770;9.868;2022-07-06T16:04:59;27.50;52.00
5172;DHT22;2605;49.770;9.868;2022-07-06T16:07:25;26.70;52.90
5172;DHT22;2605;49.770;9.868;2022-07-06T16:09:51;26.70;53.30
5172;DHT22;2605;49.770;9.868;2022-07-06T16:12:16;25.90;52.90
5172;DHT22;2605;49.770;9.868;2022-07-06T16:14:45;26.30;52.90